sensor_id;sensor_type;location;lat;lon;timestamp;P1;durP1;ratioP1;P2;durP2;ratioP2
70975;SDS011;58635;51.198;6.010;2024-03-17T00:00:16;13.35;;;8.30;;
70975;SDS011;58635;51.198;6.010;2024-03-17T00:02:43;11.73;;;8.73;;
70975;SDS011;58635;51.198;6.010;2024-03-17T00:05:09;13.85;;;9.00;;
70975;SDS011;58635;51.198;6.010;2024-03-17T00:07:35;12.32;;;8.55;;
70975;SDS011;58635;51.198;6.010;2024-03-17T00:10:00;15.55;;;9.77;;
70975;SDS011;58635;51.198;6.010;2024-03-17T00:12:26;16.48;;;9.73;;
70975;SDS011;58635;51.198;6.010;2024-03-17T00:14:51;14.95;;;10.25;;
70975;SDS011;58635;51.198;6.010;2024-03-17T00:17:17;17.23;;;10.40;;
70975;SDS011;58635;51.198;6.010;2024-03-17T00:19:42;16.45;;;10.50;;
70975;SDS011;58635;51.198;6.010;2024-03-17T00:22:08;17.73;;;11.07;;
70975;SDS011;58635;51.198;6.010;2024-03-17T00:24:38;16.17;;;10.77;;
70975;SDS011;58635;51.198;6.010;2024-03-17T00:27:04;17.75;;;11.43;;
70975;SDS011;58635;51.198;6.010;2024-03-17T00:29:29;17.92;;;11.70;;
70975;SDS011;58635;51.198;6.010;2024-03-17T00:31:55;18.02;;;10.40;;
70975;SDS011;58635;51.198;6.010;2024-03-17T00:34:20;14.10;;;10.38;;
70975;SDS011;58635;51.198;6.010;2024-03-17T00:36:46;14.52;;;10.48;;
70975;SDS011;58635;51.198;6.010;2024-03-17T00:39:11;15.05;;;10.20;;
70975;SDS011;58635;51.198;6.010;2024-03-17T00:41:37;17.73;;;10.40;;
70975;SDS011;58635;51.198;6.010;2024-03-17T00:44:03;16.30;;;9.68;;
70975;SDS011;58635;51.198;6.010;2024-03-17T00:46:29;13.00;;;9.40;;
70975;SDS011;58635;51.198;6.010;2024-03-17T00:48:54;11.90;;;8.95;;
70975;SDS011;58635;51.198;6.010;2024-03-17T00:51:20;12.10;;;8.93;;
70975;SDS011;58635;51.198;6.010;2024-03-17T00:53:45;11.07;;;8.55;;
70975;SDS011;58635;51.198;6.010;2024-03-17T00:56:11;14.20;;;9.70;;
70975;SDS011;58635;51.198;6.010;2024-03-17T00:58:36;12.18;;;9.00;;
70975;SDS011;58635;51.198;6.010;2024-03-17T01:01:03;12.48;;;8.82;;
70975;SDS011;58635;51.198;6.010;2024-03-17T01:03:29;12.48;;;8.50;;
70975;SDS011;58635;51.198;6.010;2024-03-17T01:05:54;13.18;;;8.77;;
70975;SDS011;58635;51.198;6.010;2024-03-17T01:08:20;11.95;;;9.30;;
70975;SDS011;58635;51.198;6.010;2024-03-17T01:10:46;13.73;;;9.23;;
70975;SDS011;58635;51.198;6.010;2024-03-17T01:13:16;12.48;;;8.98;;
70975;SDS011;58635;51.198;6.010;2024-03-17T01:15:43;12.55;;;9.63;;
70975;SDS011;58635;51.198;6.010;2024-03-17T01:18:08;10.82;;;8.68;;
70975;SDS011;58635;51.198;6.010;2024-03-17T01:20:35;11.35;;;8.68;;
70975;SDS011;58635;51.198;6.010;2024-03-17T01:23:02;13.20;;;9.30;;
70975;SDS011;58635;51.198;6.010;2024-03-17T01:25:28;16.95;;;9.60;;
70975;SDS011;58635;51.198;6.010;2024-03-17T01:27:54;13.85;;;9.23;;
70975;SDS011;58635;51.198;6.010;2024-03-17T01:30:20;11.57;;;8.80;;
70975;SDS011;58635;51.198;6.010;2024-03-17T01:32:46;13.32;;;9.75;;
70975;SDS011;58635;51.198;6.010;2024-03-17T01:35:12;13.73;;;9.60;;
70975;SDS011;58635;51.198;6.010;2024-03-17T01:37:38;11.82;;;9.75;;
70975;SDS011;58635;51.198;6.010;2024-03-17T01:40:04;12.43;;;9.07;;
70975;SDS011;58635;51.198;6.010;2024-03-17T01:42:33;14.23;;;9.40;;
70975;SDS011;58635;51.198;6.010;2024-03-17T01:44:58;11.63;;;9.07;;
70975;SDS011;58635;51.198;6.010;2024-03-17T01:47:24;12.43;;;9.13;;
70975;SDS011;58635;51.198;6.010;2024-03-17T01:49:50;13.40;;;9.35;;
70975;SDS011;58635;51.198;6.010;2024-03-17T01:52:16;12.52;;;9.02;;
70975;SDS011;58635;51.198;6.010;2024-03-17T01:54:43;14.05;;;9.13;;
70975;SDS011;58635;51.198;6.010;2024-03-17T01:57:11;12.88;;;9.82;;
70975;SDS011;58635;51.198;6.010;2024-03-17T01:59:36;14.05;;;9.68;;
70975;SDS011;58635;51.198;6.010;2024-03-17T02:02:02;11.35;;;9.13;;
70975;SDS011;58635;51.198;6.010;2024-03-17T02:04:28;13.70;;;9.20;;
70975;SDS011;58635;51.198;6.010;2024-03-17T02:06:54;12.40;;;9.48;;
70975;SDS011;58635;51.198;6.010;2024-03-17T02:09:20;12.80;;;10.05;;
70975;SDS011;58635;51.198;6.010;2024-03-17T02:11:47;14.30;;;10.00;;
70975;SDS011;58635;51.198;6.010;2024-03-17T02:14:13;17.02;;;11.07;;
70975;SDS011;58635;51.198;6.010;2024-03-17T02:16:39;15.15;;;10.48;;
70975;SDS011;58635;51.198;6.010;2024-03-17T02:19:05;18.88;;;12.43;;
70975;SDS011;58635;51.198;6.010;2024-03-17T02:21:31;19.40;;;13.05;;
70975;SDS011;58635;51.198;6.010;2024-03-17T02:23:56;19.95;;;13.50;;
70975;SDS011;58635;51.198;6.010;2024-03-17T02:26:22;20.70;;;14.32;;
70975;SDS011;58635;51.198;6.010;2024-03-17T02:28:51;21.85;;;14.75;;
70975;SDS011;58635;51.198;6.010;2024-03-17T02:31:17;21.90;;;14.63;;
70975;SDS011;58635;51.198;6.010;2024-03-17T02:33:43;22.13;;;15.07;;
70975;SDS011;58635;51.198;6.010;2024-03-17T02:36:09;20.33;;;13.80;;
70975;SDS011;58635;51.198;6.010;2024-03-17T02:38:37;19.38;;;13.77;;
70975;SDS011;58635;51.198;6.010;2024-03-17T02:41:21;20.38;;;12.43;;
70975;SDS011;58635;51.198;6.010;2024-03-17T02:43:47;16.00;;;11.10;;
70975;SDS011;58635;51.198;6.010;2024-03-17T02:46:16;16.77;;;10.85;;
70975;SDS011;58635;51.198;6.010;2024-03-17T02:48:43;14.77;;;9.70;;
70975;SDS011;58635;51.198;6.010;2024-03-17T02:51:15;13.75;;;9.20;;
70975;SDS011;58635;51.198;6.010;2024-03-17T02:53:42;13.35;;;8.15;;
70975;SDS011;58635;51.198;6.010;2024-03-17T02:56:10;15.68;;;8.32;;
70975;SDS011;58635;51.198;6.010;2024-03-17T02:58:36;11.73;;;7.78;;
70975;SDS011;58635;51.198;6.010;2024-03-17T03:01:05;9.90;;;7.43;;
70975;SDS011;58635;51.198;6.010;2024-03-17T03:03:31;11.63;;;7.45;;
70975;SDS011;58635;51.198;6.010;2024-03-17T03:05:57;12.02;;;7.55;;
70975;SDS011;58635;51.198;6.010;2024-03-17T03:08:23;11.40;;;7.72;;
70975;SDS011;58635;51.198;6.010;2024-03-17T03:10:49;10.35;;;7.38;;
70975;SDS011;58635;51.198;6.010;2024-03-17T03:13:15;10.93;;;7.32;;
70975;SDS011;58635;51.198;6.010;2024-03-17T03:15:41;11.93;;;7.68;;
70975;SDS011;58635;51.198;6.010;2024-03-17T03:18:06;11.82;;;7.40;;
70975;SDS011;58635;51.198;6.010;2024-03-17T03:20:32;10.88;;;7.38;;
70975;SDS011;58635;51.198;6.010;2024-03-17T03:22:57;10.65;;;7.80;;
70975;SDS011;58635;51.198;6.010;2024-03-17T03:25:22;10.75;;;6.85;;
70975;SDS011;58635;51.198;6.010;2024-03-17T03:27:48;11.90;;;7.07;;
70975;SDS011;58635;51.198;6.010;2024-03-17T03:30:14;11.60;;;7.10;;
70975;SDS011;58635;51.198;6.010;2024-03-17T03:32:41;10.88;;;7.30;;
70975;SDS011;58635;51.198;6.010;2024-03-17T03:35:07;9.48;;;7.00;;
70975;SDS011;58635;51.198;6.010;2024-03-17T03:37:33;9.70;;;7.10;;
70975;SDS011;58635;51.198;6.010;2024-03-17T03:39:59;13.43;;;7.10;;
70975;SDS011;58635;51.198;6.010;2024-03-17T03:42:24;10.70;;;7.15;;
70975;SDS011;58635;51.198;6.010;2024-03-17T03:44:49;9.43;;;6.88;;
70975;SDS011;58635;51.198;6.010;2024-03-17T03:47:15;10.10;;;7.25;;
70975;SDS011;58635;51.198;6.010;2024-03-17T03:49:40;10.80;;;6.68;;
70975;SDS011;58635;51.198;6.010;2024-03-17T03:52:06;10.82;;;7.13;;
70975;SDS011;58635;51.198;6.010;2024-03-17T03:54:31;9.25;;;6.55;;
70975;SDS011;58635;51.198;6.010;2024-03-17T03:56:56;10.77;;;6.93;;
70975;SDS011;58635;51.198;6.010;2024-03-17T03:59:22;12.55;;;6.70;;
70975;SDS011;58635;51.198;6.010;2024-03-17T04:01:47;8.32;;;6.53;;
70975;SDS011;58635;51.198;6.010;2024-03-17T04:04:15;10.45;;;6.32;;
70975;SDS011;58635;51.198;6.010;2024-03-17T04:06:41;8.75;;;6.70;;
70975;SDS011;58635;51.198;6.010;2024-03-17T04:09:06;11.55;;;7.97;;
70975;SDS011;58635;51.198;6.010;2024-03-17T04:11:35;13.90;;;8.38;;
70975;SDS011;58635;51.198;6.010;2024-03-17T04:14:01;13.10;;;8.35;;
70975;SDS011;58635;51.198;6.010;2024-03-17T04:16:26;14.98;;;10.75;;
70975;SDS011;58635;51.198;6.010;2024-03-17T04:18:52;15.60;;;10.75;;
70975;SDS011;58635;51.198;6.010;2024-03-17T04:21:18;17.33;;;11.30;;
70975;SDS011;58635;51.198;6.010;2024-03-17T04:23:44;16.40;;;11.00;;
70975;SDS011;58635;51.198;6.010;2024-03-17T04:26:09;16.00;;;10.90;;
70975;SDS011;58635;51.198;6.010;2024-03-17T04:28:35;13.20;;;9.77;;
70975;SDS011;58635;51.198;6.010;2024-03-17T04:31:04;10.77;;;8.63;;
70975;SDS011;58635;51.198;6.010;2024-03-17T04:33:31;11.52;;;8.35;;
70975;SDS011;58635;51.198;6.010;2024-03-17T04:35:57;11.90;;;7.97;;
70975;SDS011;58635;51.198;6.010;2024-03-17T04:38:23;10.13;;;7.72;;
70975;SDS011;58635;51.198;6.010;2024-03-17T04:40:49;11.20;;;8.07;;
70975;SDS011;58635;51.198;6.010;2024-03-17T04:43:15;10.90;;;7.93;;
70975;SDS011;58635;51.198;6.010;2024-03-17T04:45:41;12.40;;;8.30;;
70975;SDS011;58635;51.198;6.010;2024-03-17T04:48:06;11.05;;;8.05;;
70975;SDS011;58635;51.198;6.010;2024-03-17T04:50:32;11.50;;;8.13;;
70975;SDS011;58635;51.198;6.010;2024-03-17T04:52:58;12.50;;;9.15;;
70975;SDS011;58635;51.198;6.010;2024-03-17T04:55:24;13.20;;;9.07;;
70975;SDS011;58635;51.198;6.010;2024-03-17T04:57:50;15.00;;;9.93;;
70975;SDS011;58635;51.198;6.010;2024-03-17T05:00:15;11.10;;;8.65;;
70975;SDS011;58635;51.198;6.010;2024-03-17T05:02:43;14.10;;;8.75;;
70975;SDS011;58635;51.198;6.010;2024-03-17T05:05:09;13.10;;;8.23;;
70975;SDS011;58635;51.198;6.010;2024-03-17T05:07:35;10.20;;;7.82;;
70975;SDS011;58635;51.198;6.010;2024-03-17T05:10:01;10.30;;;7.55;;
70975;SDS011;58635;51.198;6.010;2024-03-17T05:12:27;10.40;;;6.85;;
70975;SDS011;58635;51.198;6.010;2024-03-17T05:14:53;11.65;;;7.80;;
70975;SDS011;58635;51.198;6.010;2024-03-17T05:17:18;11.10;;;7.72;;
70975;SDS011;58635;51.198;6.010;2024-03-17T05:19:44;10.80;;;8.00;;
70975;SDS011;58635;51.198;6.010;2024-03-17T05:22:09;9.82;;;7.30;;
70975;SDS011;58635;51.198;6.010;2024-03-17T05:24:35;9.30;;;6.85;;
70975;SDS011;58635;51.198;6.010;2024-03-17T05:27:01;9.50;;;6.60;;
70975;SDS011;58635;51.198;6.010;2024-03-17T05:29:26;10.13;;;6.30;;
70975;SDS011;58635;51.198;6.010;2024-03-17T05:31:52;7.63;;;5.00;;
70975;SDS011;58635;51.198;6.010;2024-03-17T05:34:17;7.05;;;5.35;;
70975;SDS011;58635;51.198;6.010;2024-03-17T05:36:43;8.02;;;5.13;;
70975;SDS011;58635;51.198;6.010;2024-03-17T05:39:08;7.05;;;4.75;;
70975;SDS011;58635;51.198;6.010;2024-03-17T05:41:33;8.48;;;5.07;;
70975;SDS011;58635;51.198;6.010;2024-03-17T05:44:00;7.05;;;5.05;;
70975;SDS011;58635;51.198;6.010;2024-03-17T05:46:28;6.50;;;4.93;;
70975;SDS011;58635;51.198;6.010;2024-03-17T05:48:54;7.28;;;5.43;;
70975;SDS011;58635;51.198;6.010;2024-03-17T05:51:20;8.48;;;5.45;;
70975;SDS011;58635;51.198;6.010;2024-03-17T05:53:46;8.35;;;5.80;;
70975;SDS011;58635;51.198;6.010;2024-03-17T05:56:12;7.05;;;4.93;;
70975;SDS011;58635;51.198;6.010;2024-03-17T05:58:38;8.07;;;5.25;;
70975;SDS011;58635;51.198;6.010;2024-03-17T06:01:07;7.35;;;5.57;;
70975;SDS011;58635;51.198;6.010;2024-03-17T06:03:35;7.50;;;5.50;;
70975;SDS011;58635;51.198;6.010;2024-03-17T06:06:01;8.65;;;5.70;;
70975;SDS011;58635;51.198;6.010;2024-03-17T06:08:27;9.98;;;5.78;;
70975;SDS011;58635;51.198;6.010;2024-03-17T06:10:52;8.43;;;5.55;;
70975;SDS011;58635;51.198;6.010;2024-03-17T06:13:18;9.52;;;6.00;;
70975;SDS011;58635;51.198;6.010;2024-03-17T06:15:44;9.48;;;5.40;;
70975;SDS011;58635;51.198;6.010;2024-03-17T06:18:11;7.75;;;5.15;;
70975;SDS011;58635;51.198;6.010;2024-03-17T06:20:42;8.55;;;5.53;;
70975;SDS011;58635;51.198;6.010;2024-03-17T06:23:09;9.05;;;5.68;;
70975;SDS011;58635;51.198;6.010;2024-03-17T06:25:42;6.53;;;5.50;;
70975;SDS011;58635;51.198;6.010;2024-03-17T06:28:09;10.63;;;5.05;;
70975;SDS011;58635;51.198;6.010;2024-03-17T06:30:38;7.88;;;5.35;;
70975;SDS011;58635;51.198;6.010;2024-03-17T06:33:07;8.35;;;5.32;;
70975;SDS011;58635;51.198;6.010;2024-03-17T06:35:38;7.15;;;4.70;;
70975;SDS011;58635;51.198;6.010;2024-03-17T06:38:04;10.00;;;5.25;;
70975;SDS011;58635;51.198;6.010;2024-03-17T06:40:29;6.60;;;5.10;;
70975;SDS011;58635;51.198;6.010;2024-03-17T06:42:55;9.23;;;4.93;;
70975;SDS011;58635;51.198;6.010;2024-03-17T06:45:21;8.98;;;5.68;;
70975;SDS011;58635;51.198;6.010;2024-03-17T06:47:46;10.30;;;6.70;;
70975;SDS011;58635;51.198;6.010;2024-03-17T06:50:12;11.32;;;7.03;;
70975;SDS011;58635;51.198;6.010;2024-03-17T06:52:38;11.27;;;7.43;;
70975;SDS011;58635;51.198;6.010;2024-03-17T06:55:03;12.00;;;7.65;;
70975;SDS011;58635;51.198;6.010;2024-03-17T06:57:29;11.05;;;7.65;;
70975;SDS011;58635;51.198;6.010;2024-03-17T06:59:55;13.07;;;7.63;;
70975;SDS011;58635;51.198;6.010;2024-03-17T07:02:20;14.00;;;8.05;;
70975;SDS011;58635;51.198;6.010;2024-03-17T07:04:46;12.65;;;7.97;;
70975;SDS011;58635;51.198;6.010;2024-03-17T07:07:12;12.75;;;7.30;;
70975;SDS011;58635;51.198;6.010;2024-03-17T07:09:38;9.20;;;6.55;;
70975;SDS011;58635;51.198;6.010;2024-03-17T07:12:05;7.68;;;6.00;;
70975;SDS011;58635;51.198;6.010;2024-03-17T07:14:34;9.30;;;5.65;;
70975;SDS011;58635;51.198;6.010;2024-03-17T07:17:00;8.85;;;5.28;;
70975;SDS011;58635;51.198;6.010;2024-03-17T07:19:25;8.32;;;5.45;;
70975;SDS011;58635;51.198;6.010;2024-03-17T07:21:51;8.10;;;5.55;;
70975;SDS011;58635;51.198;6.010;2024-03-17T07:24:16;8.23;;;4.95;;
70975;SDS011;58635;51.198;6.010;2024-03-17T07:26:41;10.48;;;5.50;;
70975;SDS011;58635;51.198;6.010;2024-03-17T07:29:07;6.72;;;5.05;;
70975;SDS011;58635;51.198;6.010;2024-03-17T07:31:33;8.40;;;5.07;;
70975;SDS011;58635;51.198;6.010;2024-03-17T07:33:59;8.10;;;5.07;;
70975;SDS011;58635;51.198;6.010;2024-03-17T07:36:24;11.05;;;5.63;;
70975;SDS011;58635;51.198;6.010;2024-03-17T07:38:50;6.82;;;4.70;;
70975;SDS011;58635;51.198;6.010;2024-03-17T07:41:16;8.85;;;4.90;;
70975;SDS011;58635;51.198;6.010;2024-03-17T07:43:41;6.75;;;4.70;;
70975;SDS011;58635;51.198;6.010;2024-03-17T07:46:10;7.57;;;4.47;;
70975;SDS011;58635;51.198;6.010;2024-03-17T07:48:42;6.25;;;4.55;;
70975;SDS011;58635;51.198;6.010;2024-03-17T07:51:09;8.70;;;4.68;;
70975;SDS011;58635;51.198;6.010;2024-03-17T07:53:39;6.70;;;4.60;;
70975;SDS011;58635;51.198;6.010;2024-03-17T07:56:07;6.40;;;4.55;;
70975;SDS011;58635;51.198;6.010;2024-03-17T07:58:38;6.13;;;4.25;;
70975;SDS011;58635;51.198;6.010;2024-03-17T08:01:05;7.38;;;4.53;;
70975;SDS011;58635;51.198;6.010;2024-03-17T08:03:32;5.60;;;3.85;;
70975;SDS011;58635;51.198;6.010;2024-03-17T08:05:59;6.25;;;3.97;;
70975;SDS011;58635;51.198;6.010;2024-03-17T08:08:26;6.85;;;4.60;;
70975;SDS011;58635;51.198;6.010;2024-03-17T08:10:51;8.23;;;4.82;;
70975;SDS011;58635;51.198;6.010;2024-03-17T08:13:17;9.73;;;5.30;;
70975;SDS011;58635;51.198;6.010;2024-03-17T08:15:44;7.80;;;5.05;;
70975;SDS011;58635;51.198;6.010;2024-03-17T08:18:10;8.65;;;5.70;;
70975;SDS011;58635;51.198;6.010;2024-03-17T08:20:40;7.43;;;5.18;;
70975;SDS011;58635;51.198;6.010;2024-03-17T08:23:06;7.88;;;4.97;;
70975;SDS011;58635;51.198;6.010;2024-03-17T08:25:32;7.55;;;5.13;;
70975;SDS011;58635;51.198;6.010;2024-03-17T08:27:58;8.25;;;4.85;;
70975;SDS011;58635;51.198;6.010;2024-03-17T08:30:24;12.23;;;6.20;;
70975;SDS011;58635;51.198;6.010;2024-03-17T08:32:49;11.93;;;5.43;;
70975;SDS011;58635;51.198;6.010;2024-03-17T08:35:14;11.20;;;5.18;;
70975;SDS011;58635;51.198;6.010;2024-03-17T08:37:40;6.45;;;4.78;;
70975;SDS011;58635;51.198;6.010;2024-03-17T08:40:05;5.60;;;4.43;;
70975;SDS011;58635;51.198;6.010;2024-03-17T08:42:32;7.32;;;4.65;;
70975;SDS011;58635;51.198;6.010;2024-03-17T08:44:57;7.47;;;4.53;;
70975;SDS011;58635;51.198;6.010;2024-03-17T08:47:23;9.25;;;5.47;;
70975;SDS011;58635;51.198;6.010;2024-03-17T08:49:51;9.15;;;5.28;;
70975;SDS011;58635;51.198;6.010;2024-03-17T08:52:17;7.15;;;5.03;;
70975;SDS011;58635;51.198;6.010;2024-03-17T08:54:45;8.18;;;5.13;;
70975;SDS011;58635;51.198;6.010;2024-03-17T08:57:11;8.57;;;5.57;;
70975;SDS011;58635;51.198;6.010;2024-03-17T08:59:37;8.32;;;5.35;;
70975;SDS011;58635;51.198;6.010;2024-03-17T09:02:02;8.23;;;5.72;;
70975;SDS011;58635;51.198;6.010;2024-03-17T09:04:28;9.15;;;5.38;;
70975;SDS011;58635;51.198;6.010;2024-03-17T09:06:54;9.73;;;5.10;;
70975;SDS011;58635;51.198;6.010;2024-03-17T09:09:21;9.93;;;6.65;;
70975;SDS011;58635;51.198;6.010;2024-03-17T09:11:47;9.27;;;5.93;;
70975;SDS011;58635;51.198;6.010;2024-03-17T09:14:12;9.73;;;6.28;;
70975;SDS011;58635;51.198;6.010;2024-03-17T09:16:38;9.68;;;6.22;;
70975;SDS011;58635;51.198;6.010;2024-03-17T09:19:03;13.65;;;6.28;;
70975;SDS011;58635;51.198;6.010;2024-03-17T09:21:28;11.82;;;6.05;;
70975;SDS011;58635;51.198;6.010;2024-03-17T09:23:54;9.07;;;5.45;;
70975;SDS011;58635;51.198;6.010;2024-03-17T09:26:19;9.77;;;5.60;;
70975;SDS011;58635;51.198;6.010;2024-03-17T09:28:44;8.10;;;4.82;;
70975;SDS011;58635;51.198;6.010;2024-03-17T09:31:10;20.52;;;13.13;;
70975;SDS011;58635;51.198;6.010;2024-03-17T09:33:36;10.63;;;5.85;;
70975;SDS011;58635;51.198;6.010;2024-03-17T09:36:04;5.82;;;4.32;;
70975;SDS011;58635;51.198;6.010;2024-03-17T09:38:31;7.13;;;3.97;;
70975;SDS011;58635;51.198;6.010;2024-03-17T09:40:57;8.50;;;4.45;;
70975;SDS011;58635;51.198;6.010;2024-03-17T09:43:25;6.90;;;4.28;;
70975;SDS011;58635;51.198;6.010;2024-03-17T09:45:51;8.82;;;4.50;;
70975;SDS011;58635;51.198;6.010;2024-03-17T09:48:22;7.90;;;4.80;;
70975;SDS011;58635;51.198;6.010;2024-03-17T09:50:55;9.02;;;4.68;;
70975;SDS011;58635;51.198;6.010;2024-03-17T09:53:26;8.73;;;5.03;;
70975;SDS011;58635;51.198;6.010;2024-03-17T09:56:00;8.38;;;5.50;;
70975;SDS011;58635;51.198;6.010;2024-03-17T09:58:29;7.70;;;5.40;;
70975;SDS011;58635;51.198;6.010;2024-03-17T10:00:54;12.13;;;6.55;;
70975;SDS011;58635;51.198;6.010;2024-03-17T10:06:09;8.10;;;5.40;;
70975;SDS011;58635;51.198;6.010;2024-03-17T10:08:47;10.38;;;6.18;;
70975;SDS011;58635;51.198;6.010;2024-03-17T10:11:14;8.95;;;6.00;;
70975;SDS011;58635;51.198;6.010;2024-03-17T10:13:42;7.53;;;5.68;;
70975;SDS011;58635;51.198;6.010;2024-03-17T10:16:24;7.30;;;5.13;;
70975;SDS011;58635;51.198;6.010;2024-03-17T10:18:51;9.02;;;5.80;;
70975;SDS011;58635;51.198;6.010;2024-03-17T10:21:30;8.02;;;5.55;;
70975;SDS011;58635;51.198;6.010;2024-03-17T10:26:51;9.63;;;6.05;;
70975;SDS011;58635;51.198;6.010;2024-03-17T10:31:58;6.97;;;5.15;;
70975;SDS011;58635;51.198;6.010;2024-03-17T10:34:27;12.30;;;7.03;;
70975;SDS011;58635;51.198;6.010;2024-03-17T10:37:10;9.95;;;5.72;;
70975;SDS011;58635;51.198;6.010;2024-03-17T10:39:39;9.07;;;5.82;;
70975;SDS011;58635;51.198;6.010;2024-03-17T10:42:06;7.85;;;4.55;;
70975;SDS011;58635;51.198;6.010;2024-03-17T10:44:42;8.07;;;5.35;;
70975;SDS011;58635;51.198;6.010;2024-03-17T10:47:16;8.82;;;5.78;;
70975;SDS011;58635;51.198;6.010;2024-03-17T10:49:46;7.85;;;5.40;;
70975;SDS011;58635;51.198;6.010;2024-03-17T10:52:18;8.93;;;5.78;;
70975;SDS011;58635;51.198;6.010;2024-03-17T10:54:46;8.65;;;5.90;;
70975;SDS011;58635;51.198;6.010;2024-03-17T10:57:32;7.43;;;5.45;;
70975;SDS011;58635;51.198;6.010;2024-03-17T11:00:10;8.95;;;5.82;;
70975;SDS011;58635;51.198;6.010;2024-03-17T11:02:42;8.45;;;5.60;;
70975;SDS011;58635;51.198;6.010;2024-03-17T11:05:22;7.63;;;5.38;;
70975;SDS011;58635;51.198;6.010;2024-03-17T11:07:50;9.90;;;5.55;;
70975;SDS011;58635;51.198;6.010;2024-03-17T11:10:27;7.68;;;5.57;;
70975;SDS011;58635;51.198;6.010;2024-03-17T11:12:57;7.68;;;4.90;;
70975;SDS011;58635;51.198;6.010;2024-03-17T11:17:50;8.60;;;5.05;;
70975;SDS011;58635;51.198;6.010;2024-03-17T11:20:17;9.38;;;5.15;;
70975;SDS011;58635;51.198;6.010;2024-03-17T11:22:49;9.55;;;5.03;;
70975;SDS011;58635;51.198;6.010;2024-03-17T11:27:51;9.00;;;5.45;;
70975;SDS011;58635;51.198;6.010;2024-03-17T11:46:52;9.88;;;5.63;;
70975;SDS011;58635;51.198;6.010;2024-03-17T11:49:28;7.65;;;5.22;;
70975;SDS011;58635;51.198;6.010;2024-03-17T11:51:59;8.32;;;4.85;;
70975;SDS011;58635;51.198;6.010;2024-03-17T11:54:27;9.40;;;5.63;;
70975;SDS011;58635;51.198;6.010;2024-03-17T11:56:54;7.53;;;5.30;;
70975;SDS011;58635;51.198;6.010;2024-03-17T11:59:31;7.32;;;4.88;;
70975;SDS011;58635;51.198;6.010;2024-03-17T12:01:57;8.85;;;4.80;;
70975;SDS011;58635;51.198;6.010;2024-03-17T12:04:24;6.90;;;4.47;;
70975;SDS011;58635;51.198;6.010;2024-03-17T12:06:56;7.35;;;4.90;;
70975;SDS011;58635;51.198;6.010;2024-03-17T12:09:27;7.50;;;4.95;;
70975;SDS011;58635;51.198;6.010;2024-03-17T12:12:10;7.10;;;5.00;;
70975;SDS011;58635;51.198;6.010;2024-03-17T12:14:39;9.23;;;5.18;;
70975;SDS011;58635;51.198;6.010;2024-03-17T12:17:05;9.80;;;5.63;;
70975;SDS011;58635;51.198;6.010;2024-03-17T12:19:32;8.02;;;4.97;;
70975;SDS011;58635;51.198;6.010;2024-03-17T12:21:58;10.63;;;4.95;;
70975;SDS011;58635;51.198;6.010;2024-03-17T12:24:25;11.77;;;6.32;;
70975;SDS011;58635;51.198;6.010;2024-03-17T12:26:53;10.70;;;6.57;;
70975;SDS011;58635;51.198;6.010;2024-03-17T12:32:01;7.30;;;4.05;;
70975;SDS011;58635;51.198;6.010;2024-03-17T12:34:29;8.98;;;4.28;;
70975;SDS011;58635;51.198;6.010;2024-03-17T12:36:56;7.22;;;3.85;;
70975;SDS011;58635;51.198;6.010;2024-03-17T12:39:24;7.25;;;3.90;;
70975;SDS011;58635;51.198;6.010;2024-03-17T12:42:07;8.00;;;4.18;;
70975;SDS011;58635;51.198;6.010;2024-03-17T12:44:48;8.10;;;3.95;;
70975;SDS011;58635;51.198;6.010;2024-03-17T12:47:22;8.30;;;3.60;;
70975;SDS011;58635;51.198;6.010;2024-03-17T12:49:49;7.28;;;3.50;;
70975;SDS011;58635;51.198;6.010;2024-03-17T12:52:22;6.85;;;4.30;;
70975;SDS011;58635;51.198;6.010;2024-03-17T12:54:57;7.82;;;3.90;;
70975;SDS011;58635;51.198;6.010;2024-03-17T12:57:45;5.97;;;4.05;;
70975;SDS011;58635;51.198;6.010;2024-03-17T13:00:30;7.63;;;4.65;;
70975;SDS011;58635;51.198;6.010;2024-03-17T13:03:02;8.32;;;4.50;;
70975;SDS011;58635;51.198;6.010;2024-03-17T13:05:29;6.90;;;4.05;;
70975;SDS011;58635;51.198;6.010;2024-03-17T13:07:58;7.47;;;4.22;;
70975;SDS011;58635;51.198;6.010;2024-03-17T13:10:24;7.35;;;4.32;;
70975;SDS011;58635;51.198;6.010;2024-03-17T13:13:00;6.05;;;3.60;;
70975;SDS011;58635;51.198;6.010;2024-03-17T13:15:27;8.95;;;4.68;;
70975;SDS011;58635;51.198;6.010;2024-03-17T13:17:55;9.38;;;4.60;;
70975;SDS011;58635;51.198;6.010;2024-03-17T13:20:21;8.98;;;4.60;;
70975;SDS011;58635;51.198;6.010;2024-03-17T13:22:46;7.35;;;4.25;;
70975;SDS011;58635;51.198;6.010;2024-03-17T13:25:13;6.00;;;3.80;;
70975;SDS011;58635;51.198;6.010;2024-03-17T13:27:39;11.23;;;4.15;;
70975;SDS011;58635;51.198;6.010;2024-03-17T13:30:05;6.10;;;3.90;;
70975;SDS011;58635;51.198;6.010;2024-03-17T13:32:31;8.70;;;4.50;;
70975;SDS011;58635;51.198;6.010;2024-03-17T13:34:57;9.55;;;5.13;;
70975;SDS011;58635;51.198;6.010;2024-03-17T13:37:22;9.00;;;4.75;;
70975;SDS011;58635;51.198;6.010;2024-03-17T13:39:47;8.75;;;4.40;;
70975;SDS011;58635;51.198;6.010;2024-03-17T13:42:13;9.40;;;5.03;;
70975;SDS011;58635;51.198;6.010;2024-03-17T13:44:38;8.65;;;4.60;;
70975;SDS011;58635;51.198;6.010;2024-03-17T13:47:04;6.63;;;4.85;;
70975;SDS011;58635;51.198;6.010;2024-03-17T13:49:29;7.65;;;4.38;;
70975;SDS011;58635;51.198;6.010;2024-03-17T13:51:55;7.10;;;4.35;;
70975;SDS011;58635;51.198;6.010;2024-03-17T13:54:20;9.05;;;4.65;;
70975;SDS011;58635;51.198;6.010;2024-03-17T13:56:48;7.00;;;4.25;;
70975;SDS011;58635;51.198;6.010;2024-03-17T13:59:16;7.90;;;4.72;;
70975;SDS011;58635;51.198;6.010;2024-03-17T14:01:44;7.63;;;4.63;;
70975;SDS011;58635;51.198;6.010;2024-03-17T14:04:14;8.63;;;4.70;;
70975;SDS011;58635;51.198;6.010;2024-03-17T14:06:41;7.97;;;4.80;;
70975;SDS011;58635;51.198;6.010;2024-03-17T14:09:07;7.55;;;4.47;;
70975;SDS011;58635;51.198;6.010;2024-03-17T14:11:36;7.90;;;4.55;;
70975;SDS011;58635;51.198;6.010;2024-03-17T14:14:02;7.75;;;4.55;;
70975;SDS011;58635;51.198;6.010;2024-03-17T14:16:29;6.28;;;4.32;;
70975;SDS011;58635;51.198;6.010;2024-03-17T14:18:56;6.70;;;4.50;;
70975;SDS011;58635;51.198;6.010;2024-03-17T14:21:22;10.95;;;4.43;;
70975;SDS011;58635;51.198;6.010;2024-03-17T14:23:47;6.03;;;3.80;;
70975;SDS011;58635;51.198;6.010;2024-03-17T14:26:13;10.65;;;3.72;;
70975;SDS011;58635;51.198;6.010;2024-03-17T14:28:38;8.50;;;4.38;;
70975;SDS011;58635;51.198;6.010;2024-03-17T14:31:03;7.40;;;4.22;;
70975;SDS011;58635;51.198;6.010;2024-03-17T14:33:29;7.40;;;4.28;;
70975;SDS011;58635;51.198;6.010;2024-03-17T14:35:57;6.30;;;3.92;;
70975;SDS011;58635;51.198;6.010;2024-03-17T14:38:23;5.25;;;3.47;;
70975;SDS011;58635;51.198;6.010;2024-03-17T14:40:51;6.72;;;3.80;;
70975;SDS011;58635;51.198;6.010;2024-03-17T14:43:16;7.82;;;4.07;;
70975;SDS011;58635;51.198;6.010;2024-03-17T14:45:42;8.18;;;4.32;;
70975;SDS011;58635;51.198;6.010;2024-03-17T14:48:07;7.10;;;4.30;;
70975;SDS011;58635;51.198;6.010;2024-03-17T14:50:34;6.93;;;3.70;;
70975;SDS011;58635;51.198;6.010;2024-03-17T14:53:01;6.60;;;3.90;;
70975;SDS011;58635;51.198;6.010;2024-03-17T14:55:26;8.10;;;4.03;;
70975;SDS011;58635;51.198;6.010;2024-03-17T14:57:51;6.25;;;3.85;;
70975;SDS011;58635;51.198;6.010;2024-03-17T15:00:17;8.40;;;4.22;;
70975;SDS011;58635;51.198;6.010;2024-03-17T15:02:45;18.30;;;12.20;;
70975;SDS011;58635;51.198;6.010;2024-03-17T15:05:12;7.38;;;4.05;;
70975;SDS011;58635;51.198;6.010;2024-03-17T15:07:39;8.05;;;3.80;;
70975;SDS011;58635;51.198;6.010;2024-03-17T15:10:05;7.20;;;3.97;;
70975;SDS011;58635;51.198;6.010;2024-03-17T15:12:32;6.63;;;3.65;;